Time;durP1;ratioP1;P1;durP2;ratioP2;P2;SDS_P1;SDS_P2;PMS_P1;PMS_P2;Temp;Humidity;BMP_temperature;BMP_pressure;BME280_temperature;BME280_humidity;BME280_pressure;Samples;Min_cycle;Max_cycle;Signal;HPM_P1;HPM_P2
2022/08/27 00:00:00;;;;;;;396.90;317.60;;;;;;;23.85;61.93;98993.69;304936;31;4702;-81
2022/08/27 00:00:14;;;;;;;400.06;318.92;;;;;;;23.85;62.50;98994.53;304098;32;5489;-80
2022/08/27 00:00:25;;;;;;;394.42;321.13;;;;;;;23.85;62.19;98999.03;302158;32;1354;-81
2022/08/27 00:00:35;;;;;;;393.40;320.50;;;;;;;23.85;62.25;98991.03;298707;32;7281;-81
2022/08/27 00:00:46;;;;;;;392.42;327.15;;;;;;;23.85;62.33;98993.69;299957;32;6572;-81
2022/08/27 00:00:57;;;;;;;391.10;322.35;;;;;;;23.83;62.22;98990.34;302159;32;6717;-80
2022/08/27 00:01:07;;;;;;;392.40;323.13;;;;;;;23.84;62.14;98994.69;301262;32;885;-80
2022/08/27 00:01:17;;;;;;;395.90;322.77;;;;;;;23.84;62.02;98987.50;293316;33;5703;-80
2022/08/27 00:01:28;;;;;;;399.07;325.67;;;;;;;23.83;62.05;98990.34;294678;32;5993;-80
2022/08/27 00:01:38;;;;;;;402.33;326.97;;;;;;;23.83;61.75;98990.34;299152;33;1377;-81
2022/08/27 00:01:49;;;;;;;398.40;318.58;;;;;;;23.82;61.40;98997.56;295363;33;4567;-79
2022/08/27 00:01:59;;;;;;;397.10;318.27;;;;;;;23.84;61.65;98992.03;293472;33;4708;-80
2022/08/27 00:02:10;;;;;;;397.23;318.05;;;;;;;23.84;61.79;98992.84;296071;33;1268;-81
2022/08/27 00:02:20;;;;;;;400.10;324.30;;;;;;;23.83;61.84;98995.69;298196;33;1247;-80
2022/08/27 00:02:33;;;;;;;400.70;327.43;;;;;;;23.82;61.39;98988.72;293585;33;7706;-80
2022/08/27 00:02:44;;;;;;;396.20;328.15;;;;;;;23.84;61.17;98992.03;293565;33;9762;-80
2022/08/27 00:02:54;;;;;;;391.67;323.00;;;;;;;23.85;61.34;98991.03;293188;33;1291;-80
2022/08/27 00:03:05;;;;;;;389.02;318.08;;;;;;;23.84;61.36;98992.84;292778;33;8399;-81
2022/08/27 00:03:15;;;;;;;390.07;320.97;;;;;;;23.85;61.43;98991.84;290223;33;9471;-80
2022/08/27 00:03:26;;;;;;;392.40;325.42;;;;;;;23.85;61.34;98988.34;286944;34;7985;-80
2022/08/27 00:03:36;;;;;;;392.80;325.03;;;;;;;23.87;61.23;98997.03;282827;35;1267;-80
2022/08/27 00:05:59;;;;;;;379.65;298.50;;;;;;;23.82;61.43;98988.72;2493380;27;24078;-80
2022/08/27 00:06:13;;;;;;;389.73;324.47;;;;;;;23.80;60.82;98990.69;353162;28;1214;-80
2022/08/27 00:06:24;;;;;;;393.77;326.55;;;;;;;23.79;61.30;98989.03;349362;28;1429;-80
2022/08/27 00:06:35;;;;;;;394.45;324.38;;;;;;;23.76;61.42;98994.69;350579;28;1271;-80
2022/08/27 00:06:45;;;;;;;396.05;324.40;;;;;;;23.74;61.64;98988.69;347866;28;1302;-80
2022/08/27 00:06:56;;;;;;;397.07;323.97;;;;;;;23.75;61.65;98987.69;347850;28;1200;-80
2022/08/27 00:07:06;;;;;;;396.45;325.45;;;;;;;23.74;61.60;98992.19;346517;28;1219;-80
2022/08/27 00:07:17;;;;;;;399.02;333.65;;;;;;;23.73;61.83;98992.34;348211;28;1268;-80
2022/08/27 00:07:28;;;;;;;401.83;342.70;;;;;;;23.73;61.83;98992.34;348875;28;1209;-80
2022/08/27 00:07:38;;;;;;;404.95;355.65;;;;;;;23.73;61.80;98985.16;348799;28;1203;-80
2022/08/27 00:07:49;;;;;;;403.55;356.15;;;;;;;23.74;61.89;98991.34;346379;28;963;-81
2022/08/27 00:07:59;;;;;;;403.77;359.10;;;;;;;23.72;62.01;98988.00;347619;28;997;-81
2022/08/27 00:08:11;;;;;;;403.88;359.30;;;;;;;23.70;61.82;98990.00;347227;28;1205;-81
2022/08/27 00:08:22;;;;;;;404.60;359.90;;;;;;;23.72;61.87;98988.00;346120;28;1425;-81
2022/08/27 00:08:33;;;;;;;407.58;362.58;;;;;;;23.70;61.79;98981.97;349068;28;1427;-81
2022/08/27 00:08:44;;;;;;;407.83;362.60;;;;;;;23.68;62.35;98987.47;350331;28;1197;-81
2022/08/27 00:08:54;;;;;;;410.45;365.20;;;;;;;23.67;62.39;98991.16;344967;28;1315;-81
2022/08/27 00:09:05;;;;;;;412.63;367.48;;;;;;;23.67;62.10;98987.66;343560;28;1309;-81
2022/08/27 00:09:15;;;;;;;424.03;378.43;;;;;;;23.69;62.08;98988.31;345225;28;1315;-81
2022/08/27 00:09:26;;;;;;;425.02;379.33;;;;;;;23.68;62.02;98998.16;343662;28;1182;-80
2022/08/27 00:09:36;;;;;;;416.63;371.07;;;;;;;23.69;62.36;98985.66;344093;28;1207;-81
2022/08/27 00:09:47;;;;;;;413.48;368.15;;;;;;;23.73;62.12;98989.66;344154;28;1339;-81
2022/08/27 00:09:57;;;;;;;415.40;370.10;;;;;;;23.72;61.85;98988.84;346024;28;1196;-81
2022/08/27 00:10:10;;;;;;;410.58;365.35;;;;;;;23.73;62.37;98984.31;344863;28;865;-81
2022/08/27 00:10:23;;;;;;;410.60;360.52;;;;;;;23.71;62.19;98986.31;344820;28;1022;-81
2022/08/27 00:10:34;;;;;;;412.08;362.52;;;;;;;23.69;62.23;98982.97;344774;28;1565;-81
2022/08/27 00:10:44;;;;;;;411.93;366.57;;;;;;;23.70;62.32;98987.31;343647;28;923;-81
2022/08/27 00:10:55;;;;;;;411.50;366.58;;;;;;;23.70;62.20;98990.00;341036;28;1213;-81
2022/08/27 00:11:05;;;;;;;417.93;372.87;;;;;;;23.70;62.63;98984.66;342289;28;1286;-81
2022/08/27 00:11:17;;;;;;;419.08;373.98;;;;;;;23.70;62.32;98985.50;342314;28;1265;-81
2022/08/27 00:11:27;;;;;;;417.70;372.60;;;;;;;23.68;62.44;98987.47;344303;28;1315;-81
2022/08/27 00:11:38;;;;;;;415.80;370.75;;;;;;;23.67;62.72;98984.97;344964;28;904;-81
2022/08/27 00:11:49;;;;;;;416.73;371.43;;;;;;;23.68;62.94;98982.13;343551;28;1331;-81
2022/08/27 00:11:59;;;;;;;420.25;374.77;;;;;;;23.69;62.77;98989.16;345079;28;1360;-81
2022/08/27 00:12:10;;;;;;;413.83;368.90;;;;;;;23.67;62.79;98980.47;348696;28;1323;-81
2022/08/27 00:12:20;;;;;;;415.13;370.17;;;;;;;23.69;62.73;98996.34;347757;28;1275;-78
2022/08/27 00:12:31;;;;;;;412.75;368.02;;;;;;;23.68;62.94;98992.00;346394;28;1336;-80
2022/08/27 00:12:42;;;;;;;415.30;370.52;;;;;;;23.67;62.54;98990.31;344974;28;1241;-81
2022/08/27 00:12:52;;;;;;;415.87;370.70;;;;;;;23.68;62.62;98992.81;345446;28;1181;-81
2022/08/27 00:13:03;;;;;;;417.85;372.45;;;;;;;23.68;62.67;98983.97;343523;28;1358;-81
2022/08/27 00:13:14;;;;;;;413.63;368.52;;;;;;;23.67;63.03;98984.97;343694;28;1189;-81
2022/08/27 00:13:25;;;;;;;410.23;365.63;;;;;;;23.64;63.07;98985.28;343128;28;1462;-81
2022/08/27 00:13:35;;;;;;;409.27;364.77;;;;;;;23.66;63.20;98988.63;339550;29;990;-81
2022/08/27 00:13:46;;;;;;;414.93;370.27;;;;;;;23.66;63.23;98988.63;338378;29;1199;-81
2022/08/27 00:13:56;;;;;;;415.45;370.83;;;;;;;23.65;63.19;98987.81;340174;29;1398;-81
2022/08/27 00:14:07;;;;;;;411.17;366.87;;;;;;;23.65;63.08;98989.63;335981;29;2796;-81
2022/08/27 00:14:17;;;;;;;408.88;364.70;;;;;;;23.64;62.84;98990.63;337096;29;1409;-81
2022/08/27 00:14:27;;;;;;;414.60;370.13;;;;;;;23.62;62.59;98985.44;335615;29;1764;-81
2022/08/27 00:14:38;;;;;;;417.57;372.97;;;;;;;23.61;63.08;98985.63;338055;29;1719;-81
2022/08/27 00:14:48;;;;;;;415.63;371.23;;;;;;;23.61;62.57;98986.44;335818;29;1918;-81
2022/08/27 00:14:59;;;;;;;406.07;362.00;;;;;;;23.61;62.92;98985.63;334635;29;1302;-81
2022/08/27 00:15:10;;;;;;;407.83;363.15;;;;;;;23.63;63.03;98988.97;335880;29;1243;-81
2022/08/27 00:15:21;;;;;;;415.83;370.55;;;;;;;23.62;62.89;98984.63;336946;29;912;-81
2022/08/27 00:15:32;;;;;;;422.48;376.90;;;;;;;23.64;62.95;98986.13;338303;29;1434;-81
2022/08/27 00:15:42;;;;;;;424.92;379.23;;;;;;;23.63;62.79;98988.97;335562;29;1310;-81
2022/08/27 00:15:53;;;;;;;423.73;377.70;;;;;;;23.63;63.07;98983.63;335969;29;1443;-81
2022/08/27 00:16:05;;;;;;;422.55;376.65;;;;;;;23.63;63.29;98986.28;333282;29;1691;-81
2022/08/27 00:16:16;;;;;;;417.33;371.85;;;;;;;23.62;63.21;98992.63;331861;29;1301;-81
2022/08/27 00:16:26;;;;;;;414.15;369.00;;;;;;;23.63;63.31;98991.63;331036;29;1908;-81
2022/08/27 00:16:37;;;;;;;414.88;370.08;;;;;;;23.60;63.53;98984.78;331650;29;2289;-81
2022/08/27 00:16:47;;;;;;;413.30;368.50;;;;;;;23.61;63.09;98993.63;330792;29;1387;-80
2022/08/27 00:16:58;;;;;;;410.55;366.00;;;;;;;23.59;63.21;98984.94;333272;29;2208;-80
2022/08/27 00:17:08;;;;;;;408.40;363.90;;;;;;;23.60;63.25;98997.28;335375;29;1680;-80
2022/08/27 00:17:19;;;;;;;411.80;367.23;;;;;;;23.62;62.87;98989.97;334614;29;1424;-80
2022/08/27 00:17:29;;;;;;;414.40;369.60;;;;;;;23.61;62.84;98985.63;333397;29;1320;-80
2022/08/27 00:17:39;;;;;;;418.60;373.43;;;;;;;23.60;63.03;98983.94;335396;29;1784;-80
2022/08/27 00:17:50;;;;;;;418.02;372.92;;;;;;;23.62;63.23;98988.13;332677;29;1704;-81
2022/08/27 00:18:00;;;;;;;424.70;379.30;;;;;;;23.60;63.17;98983.94;328301;30;1363;-80
2022/08/27 00:18:11;;;;;;;427.08;381.60;;;;;;;23.61;62.67;98989.13;330962;29;2015;-80
2022/08/27 00:18:21;;;;;;;423.63;378.07;;;;;;;23.61;63.08;98988.28;326781;30;2329;-80
2022/08/27 00:18:33;;;;;;;421.90;376.23;;;;;;;23.61;63.10;98986.44;326136;30;879;-80
2022/08/27 00:18:44;;;;;;;419.02;373.10;;;;;;;23.61;62.91;98998.97;328470;30;922;-80
2022/08/27 00:18:54;;;;;;;422.83;377.10;;;;;;;23.62;63.09;98989.97;324862;30;2876;-80
2022/08/27 00:19:05;;;;;;;424.17;378.70;;;;;;;23.60;62.62;98987.44;323051;30;2583;-80
2022/08/27 00:19:16;;;;;;;426.93;381.43;;;;;;;23.60;62.65;98990.13;323429;30;1209;-80
2022/08/27 00:19:26;;;;;;;430.40;384.58;;;;;;;23.61;62.57;98988.28;326192;30;1753;-80
2022/08/27 00:19:37;;;;;;;426.73;381.00;;;;;;;23.61;62.53;98988.28;322095;30;1465;-80
2022/08/27 00:19:47;;;;;;;420.50;375.10;;;;;;;23.61;62.59;98988.28;324434;30;1344;-80
2022/08/27 00:19:57;;;;;;;413.48;368.67;;;;;;;23.60;62.66;98990.13;324608;30;2082;-80
2022/08/27 00:20:08;;;;;;;413.67;368.87;;;;;;;23.60;62.74;98989.28;318631;30;2291;-79
2022/08/27 00:20:20;;;;;;;410.75;366.27;;;;;;;23.61;62.74;98991.78;316046;30;2643;-79
2022/08/27 00:20:30;;;;;;;417.17;372.25;;;;;;;23.59;62.49;98988.44;318824;31;1300;-79
2022/08/27 00:20:42;;;;;;;412.30;367.80;;;;;;;23.61;62.49;98985.63;320191;30;4139;-79
2022/08/27 00:20:53;;;;;;;404.00;359.92;;;;;;;23.60;62.56;98990.13;324958;30;3363;-79
2022/08/27 00:21:03;;;;;;;406.47;362.40;;;;;;;23.62;62.43;98995.31;322244;30;1308;-79
2022/08/27 00:21:14;;;;;;;409.10;364.75;;;;;;;23.61;62.66;98997.13;318680;31;1364;-79
2022/08/27 00:21:25;;;;;;;419.02;373.83;;;;;;;23.61;62.29;98991.78;319968;30;3184;-79
2022/08/27 00:21:36;;;;;;;418.27;373.20;;;;;;;23.61;62.39;98993.63;316597;31;2446;-79
2022/08/27 00:21:47;;;;;;;417.33;372.17;;;;;;;23.62;62.16;98992.63;316427;31;1334;-79
2022/08/27 00:21:57;;;;;;;414.07;368.80;;;;;;;23.64;62.20;98995.97;319038;30;2122;-79
2022/08/27 00:22:08;;;;;;;413.75;368.38;;;;;;;23.62;62.37;99001.47;317537;31;2821;-80
2022/08/27 00:22:18;;;;;;;412.90;367.70;;;;;;;23.62;62.11;98987.28;315092;31;2908;-80
2022/08/27 00:22:28;;;;;;;411.67;366.43;;;;;;;23.62;62.42;98995.31;310809;31;1253;-80
2022/08/27 00:22:39;;;;;;;408.47;362.47;;;;;;;23.62;62.00;99001.47;314756;31;3764;-79
2022/08/27 00:22:49;;;;;;;407.52;359.48;;;;;;;23.61;62.09;98991.78;312607;31;5569;-79
2022/08/27 00:23:00;;;;;;;405.23;354.83;;;;;;;23.62;61.98;99003.31;309849;31;823;-79
2022/08/27 00:23:10;;;;;;;405.90;360.25;;;;;;;23.60;62.25;98989.28;303804;32;4849;-80
2022/08/27 00:23:21;;;;;;;409.47;364.43;;;;;;;23.62;62.36;98995.31;302815;32;4800;-80
2022/08/27 00:23:31;;;;;;;416.88;371.50;;;;;;;23.63;62.18;98994.31;305537;32;1349;-80
2022/08/27 00:23:42;;;;;;;414.83;369.87;;;;;;;23.63;62.03;99000.47;305795;32;4394;-80
2022/08/27 00:23:52;;;;;;;411.58;366.75;;;;;;;23.64;62.30;98995.97;305231;32;3362;-80
2022/08/27 00:24:03;;;;;;;402.97;358.47;;;;;;;23.64;62.16;98994.16;302317;32;1248;-80
2022/08/27 00:24:13;;;;;;;406.75;362.17;;;;;;;23.64;62.30;98991.47;296328;33;1348;-80
2022/08/27 00:24:24;;;;;;;403.92;359.45;;;;;;;23.65;62.23;98992.31;295035;33;3817;-81
2022/08/27 00:24:35;;;;;;;408.50;363.90;;;;;;;23.65;62.21;98993.16;288730;33;4514;-80
2022/08/27 00:24:45;;;;;;;411.50;366.92;;;;;;;23.64;61.82;98990.63;291380;34;1066;-80
2022/08/27 00:24:56;;;;;;;418.90;373.87;;;;;;;23.65;62.28;98997.66;294492;33;5683;-80
2022/08/27 00:25:06;;;;;;;423.35;377.98;;;;;;;23.63;62.09;98989.78;294226;33;6744;-80
2022/08/27 00:25:17;;;;;;;422.08;376.67;;;;;;;23.64;62.43;98993.31;292393;33;1378;-81
2022/08/27 00:25:28;;;;;;;412.70;367.67;;;;;;;23.63;62.13;98991.63;289401;33;7121;-80
2022/08/27 00:25:39;;;;;;;409.20;364.30;;;;;;;23.63;62.72;98991.63;287068;33;6078;-80
2022/08/27 00:25:49;;;;;;;409.50;364.45;;;;;;;23.64;62.12;98994.16;286397;34;6552;-80
2022/08/27 00:26:00;;;;;;;412.33;367.15;;;;;;;23.64;62.03;98990.63;287564;34;959;-80
2022/08/27 00:26:10;;;;;;;415.00;369.43;;;;;;;23.66;62.49;98996.66;286596;34;5084;-80
2022/08/27 00:26:21;;;;;;;419.30;373.58;;;;;;;23.64;62.56;98994.16;285653;34;4162;-80
2022/08/27 00:26:31;;;;;;;421.03;375.47;;;;;;;23.65;62.20;98992.31;283787;34;1450;-81
2022/08/27 00:26:41;;;;;;;416.55;371.75;;;;;;;23.65;62.35;98993.16;278844;35;6050;-80
2022/08/27 00:26:52;;;;;;;414.13;369.27;;;;;;;23.67;62.15;98992.97;278000;34;6929;-80
2022/08/27 00:27:03;;;;;;;414.73;369.77;;;;;;;23.66;61.89;98993.97;278347;35;1263;-80
2022/08/27 00:27:14;;;;;;;409.48;364.40;;;;;;;23.64;62.01;98991.47;275755;35;1427;-80
2022/08/27 00:27:24;;;;;;;407.37;362.57;;;;;;;23.64;61.45;98993.31;275459;35;10387;-81
2022/08/27 00:27:35;;;;;;;406.70;361.88;;;;;;;23.62;61.74;98996.13;273836;35;10201;-81
2022/08/27 00:29:28;;;;;;;387.34;329.76;;;;;;;23.61;61.17;99002.47;2484196;27;20200;-80
2022/08/27 00:29:38;;;;;;;406.02;361.67;;;;;;;23.61;60.85;98989.13;349037;28;1346;-80
2022/08/27 00:29:49;;;;;;;409.57;364.63;;;;;;;23.62;60.94;98992.63;347912;28;1279;-80
2022/08/27 00:29:59;;;;;;;410.30;365.27;;;;;;;23.64;60.83;98998.66;346537;28;1415;-80
2022/08/27 00:30:12;;;;;;;413.27;368.37;;;;;;;23.64;60.98;98990.63;345694;28;1196;-80
2022/08/27 00:30:23;;;;;;;412.58;368.02;;;;;;;23.65;60.89;98992.31;344290;28;1224;-80
2022/08/27 00:30:33;;;;;;;410.73;366.25;;;;;;;23.63;61.04;98992.47;343769;28;1313;-80
2022/08/27 00:30:44;;;;;;;411.97;367.10;;;;;;;23.65;60.49;98997.66;344999;28;1522;-81
2022/08/27 00:30:55;;;;;;;413.75;368.42;;;;;;;23.65;60.49;99000.31;344940;28;900;-81
2022/08/27 00:31:05;;;;;;;415.75;370.23;;;;;;;23.62;60.65;98993.47;340934;29;1418;-81
2022/08/27 00:31:17;;;;;;;408.50;363.53;;;;;;;23.63;61.00;98991.63;342396;28;766;-80
2022/08/27 00:31:27;;;;;;;409.33;364.42;;;;;;;23.61;60.72;98990.94;343698;28;1296;-80
2022/08/27 00:31:38;;;;;;;413.20;368.10;;;;;;;23.63;60.93;98991.63;343015;28;1306;-80
2022/08/27 00:31:48;;;;;;;416.65;371.55;;;;;;;23.65;60.51;98992.31;345261;28;1359;-80
2022/08/27 00:31:59;;;;;;;413.87;368.83;;;;;;;23.68;60.34;98997.34;347721;28;1310;-80
2022/08/27 00:32:09;;;;;;;411.05;366.00;;;;;;;23.67;60.21;98995.66;343682;28;1365;-81
2022/08/27 00:32:19;;;;;;;415.20;369.70;;;;;;;23.62;60.43;98988.13;342556;28;2423;-81
2022/08/27 00:32:30;;;;;;;424.98;379.20;;;;;;;23.62;60.71;98988.13;341676;28;2623;-81
2022/08/27 00:32:41;;;;;;;436.43;390.13;;;;;;;23.65;60.81;98992.31;345093;28;1320;-81
2022/08/27 00:32:51;;;;;;;432.33;385.95;;;;;;;23.62;60.46;99003.31;345203;28;1627;-81
2022/08/27 00:33:03;;;;;;;425.43;379.27;;;;;;;23.62;60.47;98987.28;343406;28;3256;-81
2022/08/27 00:33:13;;;;;;;408.80;363.65;;;;;;;23.62;60.78;99000.66;346644;28;940;-81
2022/08/27 00:33:24;;;;;;;406.13;361.27;;;;;;;23.62;60.60;98992.63;344794;28;1212;-81
2022/08/27 00:33:34;;;;;;;404.02;358.52;;;;;;;23.61;60.73;98988.28;341353;28;1193;-81
2022/08/27 00:33:45;;;;;;;407.63;362.63;;;;;;;23.63;60.91;98994.31;343568;28;1306;-81
2022/08/27 00:33:55;;;;;;;414.53;369.10;;;;;;;23.60;60.86;98986.59;345040;28;1038;-81
2022/08/27 00:34:06;;;;;;;419.60;374.60;;;;;;;23.62;60.89;98992.63;344063;28;1413;-81
2022/08/27 00:34:16;;;;;;;419.87;374.83;;;;;;;23.60;60.67;98989.28;344935;28;886;-81
2022/08/27 00:34:27;;;;;;;412.40;367.88;;;;;;;23.59;60.82;98987.59;342279;28;1240;-81
2022/08/27 00:34:37;;;;;;;409.93;365.03;;;;;;;23.61;60.77;98996.31;344872;28;1291;-80
2022/08/27 00:34:48;;;;;;;406.92;362.08;;;;;;;23.61;60.94;98989.13;342168;28;1304;-80
2022/08/27 00:34:58;;;;;;;408.50;363.23;;;;;;;23.61;60.91;98991.78;342721;28;1295;-80
2022/08/27 00:35:09;;;;;;;410.73;365.63;;;;;;;23.61;60.64;98991.78;340878;29;1232;-80
2022/08/27 00:35:19;;;;;;;415.73;370.13;;;;;;;23.60;61.04;98989.28;341770;28;1376;-81
2022/08/27 00:35:30;;;;;;;418.02;372.40;;;;;;;23.60;60.73;98991.94;338514;29;938;-81
2022/08/27 00:35:40;;;;;;;422.10;376.27;;;;;;;23.61;60.72;98998.97;342102;28;1430;-80
2022/08/27 00:35:51;;;;;;;425.43;379.73;;;;;;;23.62;60.79;99000.66;341396;28;1209;-80
2022/08/27 00:36:02;;;;;;;425.33;379.75;;;;;;;23.63;60.43;98991.63;342046;28;1386;-81
2022/08/27 00:36:13;;;;;;;417.60;372.40;;;;;;;23.62;60.64;99003.31;338319;29;1368;-81
2022/08/27 00:36:24;;;;;;;414.92;369.85;;;;;;;23.61;60.92;98988.28;338569;29;1313;-81
2022/08/27 00:36:34;;;;;;;409.00;363.97;;;;;;;23.61;60.59;98996.31;338746;29;1320;-81
2022/08/27 00:36:44;;;;;;;410.80;365.17;;;;;;;23.62;60.87;98992.63;339554;29;1206;-81
2022/08/27 00:36:55;;;;;;;411.77;365.10;;;;;;;23.63;60.53;98989.78;338196;29;924;-82
2022/08/27 00:37:05;;;;;;;411.38;365.13;;;;;;;23.65;60.58;98992.31;336727;29;1257;-81
2022/08/27 00:37:16;;;;;;;410.97;365.93;;;;;;;23.64;60.69;98995.97;338252;29;1408;-81
2022/08/27 00:37:26;;;;;;;411.40;366.53;;;;;;;23.63;60.45;98996.97;339288;29;1352;-81
2022/08/27 00:37:37;;;;;;;411.15;366.25;;;;;;;23.64;60.40;98990.63;336257;29;1566;-81
2022/08/27 00:37:47;;;;;;;411.50;366.50;;;;;;;23.63;60.60;98989.78;334299;29;1370;-81
2022/08/27 00:37:57;;;;;;;409.90;364.85;;;;;;;23.62;60.54;99003.31;337163;29;1333;-81
2022/08/27 00:38:08;;;;;;;409.17;364.20;;;;;;;23.62;60.64;99009.50;335098;29;1612;-81
2022/08/27 00:38:19;;;;;;;408.90;363.92;;;;;;;23.60;60.84;98995.47;337035;29;1976;-81
2022/08/27 00:38:30;;;;;;;406.55;361.85;;;;;;;23.59;60.89;99000.97;337381;29;1230;-80
2022/08/27 00:38:40;;;;;;;408.43;363.33;;;;;;;23.59;60.65;98998.28;337874;29;1203;-80
2022/08/27 00:38:51;;;;;;;412.70;367.20;;;;;;;23.59;61.00;98999.13;339440;29;1283;-80
2022/08/27 00:39:01;;;;;;;423.23;377.08;;;;;;;23.60;60.81;99005.31;339690;29;841;-81
2022/08/27 00:39:12;;;;;;;420.90;374.90;;;;;;;23.60;60.59;98994.63;339534;29;1242;-81
2022/08/27 00:39:22;;;;;;;420.98;375.10;;;;;;;23.61;60.41;98998.97;334177;29;1420;-80
2022/08/27 00:39:33;;;;;;;414.43;368.90;;;;;;;23.62;60.70;98995.31;334257;29;2037;-80
2022/08/27 00:39:44;;;;;;;418.13;372.58;;;;;;;23.59;60.66;98999.13;330912;29;993;-81
2022/08/27 00:39:54;;;;;;;411.45;366.17;;;;;;;23.61;60.68;99001.63;330037;29;1983;-80
2022/08/27 00:40:06;;;;;;;415.53;370.43;;;;;;;23.59;61.00;98995.63;330689;29;1356;-80
2022/08/27 00:40:19;;;;;;;416.30;370.98;;;;;;;23.59;60.60;99004.47;329507;30;1290;-80
2022/08/27 00:40:29;;;;;;;417.75;372.48;;;;;;;23.57;60.91;98994.94;323506;30;880;-80
2022/08/27 00:40:40;;;;;;;415.55;370.00;;;;;;;23.58;61.02;98999.28;328503;29;1638;-80
2022/08/27 00:40:51;;;;;;;416.00;370.67;;;;;;;23.56;61.13;98991.44;329373;30;979;-80
2022/08/27 00:41:01;;;;;;;416.98;371.77;;;;;;;23.55;61.31;99003.13;328272;30;998;-80
2022/08/27 00:41:12;;;;;;;418.33;373.35;;;;;;;23.55;61.39;98998.59;328262;30;1326;-81
2022/08/27 00:41:23;;;;;;;416.42;371.25;;;;;;;23.54;61.44;98999.59;324778;30;1817;-81
2022/08/27 00:41:33;;;;;;;412.90;367.67;;;;;;;23.54;61.47;99002.28;318961;30;2757;-81
2022/08/27 00:41:44;;;;;;;414.88;369.75;;;;;;;23.55;61.23;98998.59;320750;30;1800;-81
2022/08/27 00:41:54;;;;;;;416.93;371.70;;;;;;;23.55;60.70;99003.13;320924;30;2467;-79
2022/08/27 00:42:05;;;;;;;419.73;373.95;;;;;;;23.54;61.41;99001.44;317729;30;2235;-79
2022/08/27 00:42:15;;;;;;;417.20;371.53;;;;;;;23.52;61.85;99001.56;318628;31;813;-79
2022/08/27 00:42:26;;;;;;;414.80;369.63;;;;;;;23.52;61.38;99001.56;319292;30;2040;-80
2022/08/27 00:42:36;;;;;;;420.20;375.27;;;;;;;23.52;61.58;98998.91;317456;31;2480;-80
2022/08/27 00:42:47;;;;;;;423.45;378.02;;;;;;;23.52;61.69;99001.56;313174;31;1447;-80
2022/08/27 00:42:58;;;;;;;423.83;378.30;;;;;;;23.52;61.67;98998.91;317759;31;1214;-81
2022/08/27 00:43:08;;;;;;;424.60;379.13;;;;;;;23.52;61.62;99003.41;317354;31;1290;-81
2022/08/27 00:43:25;;;;;;;425.45;380.20;;;;;;;23.52;61.87;99004.25;314717;31;2080;-81
2022/08/27 00:43:57;;;;;;;426.63;381.83;;;;;;;23.51;61.53;99007.91;313010;31;2811;-81
2022/08/27 00:44:08;;;;;;;415.55;371.10;;;;;;;23.50;61.45;98998.22;313720;31;3174;-81
2022/08/27 00:44:19;;;;;;;418.57;373.50;;;;;;;23.50;61.70;99006.22;310938;31;2902;-81
2022/08/27 00:44:30;;;;;;;418.00;372.63;;;;;;;23.48;61.20;99002.03;307587;32;1337;-80
2022/08/27 00:44:41;;;;;;;415.63;370.08;;;;;;;23.47;61.69;99000.38;310954;31;2567;-80
2022/08/27 00:44:51;;;;;;;414.07;368.40;;;;;;;23.48;61.57;99002.88;309125;31;2028;-80
2022/08/27 00:45:03;;;;;;;416.95;371.05;;;;;;;23.48;61.69;99005.56;306539;32;1388;-80
2022/08/27 00:45:15;;;;;;;416.90;371.50;;;;;;;23.49;61.51;98999.22;303316;32;1459;-80
2022/08/27 00:45:26;;;;;;;413.75;368.80;;;;;;;23.50;61.88;99000.88;302174;32;2340;-80
2022/08/27 00:45:38;;;;;;;413.50;368.45;;;;;;;23.49;61.48;99004.56;301865;32;3106;-80
2022/08/27 00:45:49;;;;;;;409.35;364.38;;;;;;;23.49;61.71;99004.56;299879;32;4096;-80
2022/08/27 00:46:28;;;;;;;407.17;360.58;;;;;;;23.49;61.25;99003.72;299569;32;1255;-80
2022/08/27 00:46:42;;;;;;;405.17;360.92;;;;;;;23.51;60.92;99001.72;295759;33;4084;-80
2022/08/27 00:47:01;;;;;;;406.17;361.42;;;;;;;23.50;61.12;99008.06;293977;33;4074;-80
2022/08/27 00:47:18;;;;;;;401.74;351.96;;;;;;;23.47;61.05;99001.22;285566;34;1359;-80
2022/08/27 00:47:29;;;;;;;399.80;351.60;;;;;;;23.49;61.10;99003.72;289325;34;954;-80
2022/08/27 00:47:43;;;;;;;400.90;350.05;;;;;;;23.49;60.98;99004.56;286669;34;3777;-80
2022/08/27 00:47:55;;;;;;;403.85;355.63;;;;;;;23.48;61.35;99002.88;283997;34;5180;-80
2022/08/27 00:48:06;;;;;;;406.10;358.55;;;;;;;23.46;61.23;99004.88;281272;34;5888;-80
2022/08/27 00:48:16;;;;;;;411.65;366.20;;;;;;;23.48;61.24;99002.88;279422;35;1680;-80
2022/08/27 00:48:29;;;;;;;414.65;369.38;;;;;;;23.46;61.36;99004.88;277489;35;1360;-80
2022/08/27 00:48:39;;;;;;;417.33;371.98;;;;;;;23.47;61.39;99011.06;279437;35;6764;-80
2022/08/27 00:48:52;;;;;;;415.27;370.33;;;;;;;23.46;61.49;99004.88;276771;35;6480;-80
2022/08/27 00:49:07;;;;;;;418.15;372.67;;;;;;;23.45;61.30;99000.53;271953;36;5447;-80
2022/08/27 00:49:20;;;;;;;409.40;364.15;;;;;;;23.47;61.06;99005.72;268914;36;4656;-80
2022/08/27 00:49:52;;;;;;;406.67;361.80;;;;;;;23.46;61.23;99004.03;270682;36;1327;-80
2022/08/27 00:50:09;;;;;;;403.50;359.25;;;;;;;23.43;61.05;99005.19;266419;36;7352;-80
2022/08/27 00:50:29;;;;;;;406.50;361.88;;;;;;;23.44;61.20;99009.53;264012;36;9135;-80
2022/08/27 00:50:43;;;;;;;409.05;364.40;;;;;;;23.45;60.97;99008.53;270511;36;8767;-80
2022/08/27 00:50:53;;;;;;;402.35;358.23;;;;;;;23.46;60.97;99004.03;267628;36;9744;-80
2022/08/27 00:51:04;;;;;;;405.85;361.58;;;;;;;23.46;60.91;99015.56;265115;36;9917;-80
2022/08/27 00:51:14;;;;;;;406.33;361.63;;;;;;;23.48;60.85;99008.22;262589;37;1264;-80
2022/08/27 00:53:10;;;;;;;378.17;310.27;;;;;;;23.45;61.58;99008.53;2500144;27;20963;-80
2022/08/27 00:53:23;;;;;;;397.70;352.13;;;;;;;23.46;61.31;99012.88;353351;28;1592;-80
2022/08/27 00:53:34;;;;;;;414.17;369.45;;;;;;;23.46;61.10;99009.38;350429;28;848;-80
2022/08/27 00:53:45;;;;;;;414.40;369.48;;;;;;;23.46;61.16;99007.53;347358;28;1450;-80
2022/08/27 00:53:56;;;;;;;415.10;370.00;;;;;;;23.46;61.13;99010.22;349436;28;1213;-80
2022/08/27 00:54:08;;;;;;;414.45;369.00;;;;;;;23.44;61.20;99011.38;350566;28;1216;-80
2022/08/27 00:54:19;;;;;;;413.90;368.35;;;;;;;23.42;61.32;99014.19;349059;28;1287;-79
2022/08/27 00:54:29;;;;;;;410.75;364.20;;;;;;;23.43;61.36;99012.38;350018;28;1185;-79
2022/08/27 00:54:40;;;;;;;416.70;371.10;;;;;;;23.39;61.43;99008.38;349171;28;1286;-80
2022/08/27 00:54:52;;;;;;;419.67;374.37;;;;;;;23.42;61.32;99014.19;346485;28;1247;-80
2022/08/27 00:55:08;;;;;;;424.55;379.38;;;;;;;23.44;61.63;99006.88;347653;28;1406;-80
2022/08/27 00:55:21;;;;;;;425.90;380.73;;;;;;;23.45;61.70;99007.72;347551;28;1311;-80
2022/08/27 00:55:38;;;;;;;416.92;371.98;;;;;;;23.42;61.63;99008.03;344871;28;1429;-80
2022/08/27 00:55:57;;;;;;;409.27;364.70;;;;;;;23.43;61.75;99015.03;347356;28;813;-80
2022/08/27 00:56:10;;;;;;;411.27;366.63;;;;;;;23.39;61.57;99009.22;347710;28;1249;-80
2022/08/27 00:56:22;;;;;;;413.25;368.23;;;;;;;23.40;61.39;99015.34;345002;28;1284;-80
2022/08/27 00:56:36;;;;;;;405.67;360.85;;;;;;;23.41;61.66;99009.84;347184;28;1272;-80
2022/08/27 00:56:47;;;;;;;409.90;365.30;;;;;;;23.40;61.71;99008.19;346371;28;1321;-79
2022/08/27 00:56:57;;;;;;;418.15;373.10;;;;;;;23.42;61.39;99016.88;344767;28;1302;-79
2022/08/27 00:57:08;;;;;;;423.23;377.73;;;;;;;23.42;61.79;99013.38;343671;28;1146;-79
2022/08/27 00:57:18;;;;;;;418.52;372.80;;;;;;;23.39;61.80;99006.53;346217;28;1235;-79
2022/08/27 00:57:29;;;;;;;416.77;371.13;;;;;;;23.41;61.46;99009.84;344133;28;1434;-80